createdAt,value
2019-05-15T00:00:24.919Z,1023.64
2019-05-15T00:01:24.883Z,1023.58
2019-05-15T00:02:24.874Z,1023.58
2019-05-15T00:03:24.873Z,1023.54
2019-05-15T00:04:24.863Z,1023.55
2019-05-15T00:05:24.880Z,1023.54
2019-05-15T00:06:24.835Z,1023.57
2019-05-15T00:07:24.841Z,1023.56
2019-05-15T00:08:24.815Z,1023.53
2019-05-15T00:09:24.812Z,1023.58
2019-05-15T00:10:24.815Z,1023.55
2019-05-15T00:11:24.778Z,1023.52
2019-05-15T00:12:24.764Z,1023.52
2019-05-15T00:13:24.761Z,1023.49
2019-05-15T00:14:24.750Z,1023.47
2019-05-15T00:15:24.755Z,1023.48
2019-05-15T00:16:24.730Z,1023.51
2019-05-15T00:17:24.737Z,1023.46
2019-05-15T00:18:24.698Z,1023.44
2019-05-15T00:19:24.692Z,1023.47
2019-05-15T00:20:24.748Z,1023.44
2019-05-15T00:21:24.671Z,1023.40
2019-05-15T00:22:24.672Z,1023.40
2019-05-15T00:23:24.646Z,1023.42
2019-05-15T00:24:24.638Z,1023.43
2019-05-15T00:25:24.655Z,1023.46
2019-05-15T00:26:24.622Z,1023.41
2019-05-15T00:27:24.597Z,1023.44
2019-05-15T00:28:24.598Z,1023.41
2019-05-15T00:29:24.576Z,1023.40
2019-05-15T00:30:24.574Z,1023.41
2019-05-15T00:31:24.585Z,1023.39
2019-05-15T00:32:24.557Z,1023.42
2019-05-15T00:33:24.538Z,1023.44
2019-05-15T00:34:24.533Z,1023.42
2019-05-15T00:35:24.526Z,1023.38
2019-05-15T00:36:24.517Z,1023.42
2019-05-15T00:37:24.509Z,1023.39
2019-05-15T00:38:24.480Z,1023.35
2019-05-15T00:39:24.465Z,1023.37
2019-05-15T00:40:24.473Z,1023.36
2019-05-15T00:41:24.491Z,1023.44
2019-05-15T00:42:24.445Z,1023.40
2019-05-15T00:43:24.439Z,1023.44
2019-05-15T00:44:24.414Z,1023.46
2019-05-15T00:45:24.408Z,1023.42
2019-05-15T00:46:24.422Z,1023.45
2019-05-15T00:47:26.176Z,1023.38
2019-05-15T00:48:24.393Z,1023.37
2019-05-15T00:49:24.365Z,1023.39
2019-05-15T00:50:24.351Z,1023.34
2019-05-15T00:51:24.342Z,1023.36
2019-05-15T00:52:24.339Z,1023.42
2019-05-15T00:53:24.332Z,1023.39
2019-05-15T00:54:24.313Z,1023.35
2019-05-15T00:55:24.294Z,1023.43
2019-05-15T00:56:24.279Z,1023.38
2019-05-15T00:57:24.275Z,1023.39
2019-05-15T00:58:24.275Z,1023.40
2019-05-15T00:59:27.494Z,1023.46
2019-05-15T01:00:25.265Z,1023.46
2019-05-15T01:01:24.227Z,1023.46
2019-05-15T01:02:24.216Z,1023.45
2019-05-15T01:03:24.224Z,1023.42
2019-05-15T01:04:24.209Z,1023.43
2019-05-15T01:05:24.183Z,1023.45
2019-05-15T01:06:24.180Z,1023.43
2019-05-15T01:07:24.156Z,1023.40
2019-05-15T01:08:24.179Z,1023.35
2019-05-15T01:09:24.150Z,1023.35
2019-05-15T01:10:24.140Z,1023.35
2019-05-15T01:11:24.118Z,1023.32
2019-05-15T01:12:24.108Z,1023.33
2019-05-15T01:13:24.114Z,1023.33
2019-05-15T01:14:24.130Z,1023.36
2019-05-15T01:15:24.080Z,1023.31
2019-05-15T01:16:24.059Z,1023.29
2019-05-15T01:17:24.039Z,1023.27
2019-05-15T01:18:24.034Z,1023.27
2019-05-15T01:19:24.029Z,1023.27
2019-05-15T01:20:24.263Z,1023.26
2019-05-15T01:21:24.007Z,1023.25
2019-05-15T01:22:23.988Z,1023.26
2019-05-15T01:23:23.985Z,1023.21
2019-05-15T01:24:23.975Z,1023.16
2019-05-15T01:25:23.967Z,1023.18
2019-05-15T01:26:23.976Z,1023.16
2019-05-15T01:27:23.976Z,1023.18
2019-05-15T01:28:23.922Z,1023.17
2019-05-15T01:29:31.001Z,1023.15
2019-05-15T01:30:24.929Z,1023.15
2019-05-15T01:31:23.909Z,1023.16
2019-05-15T01:32:23.885Z,1023.15
2019-05-15T01:33:23.875Z,1023.13
2019-05-15T01:34:23.869Z,1023.17
2019-05-15T01:35:23.851Z,1023.15
2019-05-15T01:36:23.857Z,1023.14
2019-05-15T01:37:23.842Z,1023.08
2019-05-15T01:38:23.820Z,1023.11
2019-05-15T01:39:23.817Z,1023.15
2019-05-15T01:40:23.788Z,1023.10
2019-05-15T01:41:23.790Z,1023.09
2019-05-15T01:42:23.774Z,1023.13
2019-05-15T01:43:23.810Z,1023.11
2019-05-15T01:44:23.765Z,1023.11
2019-05-15T01:45:23.776Z,1023.07
2019-05-15T01:46:23.724Z,1023.09
2019-05-15T01:47:23.723Z,1023.08
2019-05-15T01:48:23.710Z,1023.07
2019-05-15T01:49:23.703Z,1023.09
2019-05-15T01:50:23.696Z,1023.04
2019-05-15T01:51:23.774Z,1023.03
2019-05-15T01:52:23.665Z,1023.03
2019-05-15T01:53:23.656Z,1023.04
2019-05-15T01:54:23.644Z,1023.03
2019-05-15T01:55:23.651Z,1023.01
2019-05-15T01:56:23.636Z,1022.99
2019-05-15T01:57:23.602Z,1022.98
2019-05-15T01:58:23.597Z,1022.96
2019-05-15T01:59:23.605Z,1022.95
2019-05-15T02:00:23.608Z,1022.98
2019-05-15T02:01:23.677Z,1022.94
2019-05-15T02:02:23.605Z,1022.99
2019-05-15T02:03:23.535Z,1022.94
2019-05-15T02:04:23.558Z,1022.97
2019-05-15T02:05:23.532Z,1022.99
2019-05-15T02:06:23.528Z,1022.93
2019-05-15T02:07:23.487Z,1022.94
2019-05-15T02:08:23.481Z,1022.90
2019-05-15T02:09:23.472Z,1022.97
2019-05-15T02:10:23.455Z,1022.91
2019-05-15T02:11:23.478Z,1022.92
2019-05-15T02:12:23.437Z,1022.92
2019-05-15T02:13:23.429Z,1022.89
2019-05-15T02:14:23.435Z,1022.91
2019-05-15T02:15:23.402Z,1022.86
2019-05-15T02:16:23.553Z,1022.81
2019-05-15T02:17:23.406Z,1022.82
2019-05-15T02:18:23.369Z,1022.79
2019-05-15T02:19:23.386Z,1022.77
2019-05-15T02:20:23.351Z,1022.82
2019-05-15T02:21:23.369Z,1022.79
2019-05-15T02:22:23.340Z,1022.78
2019-05-15T02:23:23.355Z,1022.74
2019-05-15T02:24:23.349Z,1022.77
2019-05-15T02:25:23.295Z,1022.72
2019-05-15T02:26:23.284Z,1022.75
2019-05-15T02:27:23.280Z,1022.76
2019-05-15T02:28:23.277Z,1022.74
2019-05-15T02:29:25.128Z,1022.76
2019-05-15T02:30:28.918Z,1022.72
2019-05-15T02:31:24.230Z,1022.73
2019-05-15T02:32:23.220Z,1022.72
2019-05-15T02:33:23.218Z,1022.70
2019-05-15T02:34:23.214Z,1022.70
2019-05-15T02:35:23.231Z,1022.70
2019-05-15T02:36:23.197Z,1022.67
2019-05-15T02:37:23.166Z,1022.70
2019-05-15T02:38:23.155Z,1022.67
2019-05-15T02:39:23.152Z,1022.65
2019-05-15T02:40:23.131Z,1022.69
2019-05-15T02:41:23.135Z,1022.68
2019-05-15T02:42:23.118Z,1022.72
2019-05-15T02:43:23.094Z,1022.67
2019-05-15T02:44:23.097Z,1022.71
2019-05-15T02:45:23.078Z,1022.71
2019-05-15T02:46:23.157Z,1022.73
2019-05-15T02:47:23.052Z,1022.69
2019-05-15T02:48:23.044Z,1022.71
2019-05-15T02:49:23.047Z,1022.74
2019-05-15T02:50:23.036Z,1022.73
2019-05-15T02:51:23.042Z,1022.68
2019-05-15T02:52:23.018Z,1022.72
2019-05-15T02:53:22.992Z,1022.73
2019-05-15T02:54:22.999Z,1022.74
2019-05-15T02:55:22.978Z,1022.71
2019-05-15T02:56:22.975Z,1022.74
2019-05-15T02:57:22.962Z,1022.77
2019-05-15T02:58:22.941Z,1022.77
2019-05-15T02:59:22.945Z,1022.74
2019-05-15T03:00:37.813Z,1022.73
2019-05-15T03:01:23.917Z,1022.77
2019-05-15T03:02:22.897Z,1022.73
2019-05-15T03:03:22.912Z,1022.77
2019-05-15T03:04:22.894Z,1022.73
2019-05-15T03:05:22.861Z,1022.73
2019-05-15T03:06:22.850Z,1022.74
2019-05-15T03:07:22.875Z,1022.74
2019-05-15T03:08:22.854Z,1022.77
2019-05-15T03:09:22.845Z,1022.75
2019-05-15T03:10:22.803Z,1022.72
2019-05-15T03:11:22.808Z,1022.72
2019-05-15T03:12:22.781Z,1022.76
2019-05-15T03:13:22.778Z,1022.72
2019-05-15T03:14:22.776Z,1022.70
2019-05-15T03:15:22.783Z,1022.70
2019-05-15T03:16:23.073Z,1022.74
2019-05-15T03:17:22.732Z,1022.72
2019-05-15T03:18:22.720Z,1022.70
2019-05-15T03:19:22.711Z,1022.74
2019-05-15T03:20:22.720Z,1022.68
2019-05-15T03:21:22.689Z,1022.71
2019-05-15T03:22:22.696Z,1022.72
2019-05-15T03:23:22.665Z,1022.74
2019-05-15T03:24:22.663Z,1022.71
2019-05-15T03:25:22.651Z,1022.72
2019-05-15T03:26:22.649Z,1022.71
2019-05-15T03:27:22.679Z,1022.71
2019-05-15T03:28:22.623Z,1022.72
2019-05-15T03:29:22.602Z,1022.71
2019-05-15T03:30:22.598Z,1022.73
2019-05-15T03:31:40.283Z,1022.73
2019-05-15T03:32:34.383Z,1022.73
2019-05-15T03:33:27.701Z,1022.69
2019-05-15T03:34:30.999Z,1022.74
2019-05-15T03:35:23.731Z,1022.74
2019-05-15T03:36:24.050Z,1022.72
2019-05-15T03:37:23.036Z,1022.73
2019-05-15T03:38:22.547Z,1022.71
2019-05-15T03:39:22.496Z,1022.70
2019-05-15T03:40:22.489Z,1022.72
2019-05-15T03:41:22.521Z,1022.72
2019-05-15T03:42:22.465Z,1022.69
2019-05-15T03:43:22.464Z,1022.71
2019-05-15T03:44:22.474Z,1022.79
2019-05-15T03:45:22.487Z,1022.73
2019-05-15T03:46:22.426Z,1022.73
2019-05-15T03:47:22.428Z,1022.76
2019-05-15T03:48:22.399Z,1022.69
2019-05-15T03:49:22.393Z,1022.75
2019-05-15T03:50:22.382Z,1022.72
2019-05-15T03:51:22.558Z,1022.74
2019-05-15T03:52:22.382Z,1022.72
2019-05-15T03:53:22.998Z,1022.73
2019-05-15T03:54:22.332Z,1022.69
2019-05-15T03:55:22.330Z,1022.68
2019-05-15T03:56:22.357Z,1022.67
2019-05-15T03:57:23.339Z,1022.68
2019-05-15T03:58:22.291Z,1022.61
2019-05-15T03:59:22.313Z,1022.66
2019-05-15T04:00:22.275Z,1022.63
2019-05-15T04:01:34.362Z,1022.58
2019-05-15T04:02:23.269Z,1022.54
2019-05-15T04:03:22.270Z,1022.58
2019-05-15T04:04:22.249Z,1022.57
2019-05-15T04:05:22.211Z,1022.63
2019-05-15T04:06:22.214Z,1022.62
2019-05-15T04:07:22.237Z,1022.61
2019-05-15T04:08:22.226Z,1022.66
2019-05-15T04:09:22.175Z,1022.67
2019-05-15T04:10:22.166Z,1022.65
2019-05-15T04:11:22.154Z,1022.66
2019-05-15T04:12:22.149Z,1022.63
2019-05-15T04:13:22.138Z,1022.63
2019-05-15T04:14:22.130Z,1022.63
2019-05-15T04:15:22.104Z,1022.63
2019-05-15T04:16:22.092Z,1022.62
2019-05-15T04:17:22.182Z,1022.67
2019-05-15T04:18:22.082Z,1022.64
2019-05-15T04:19:22.067Z,1022.66
2019-05-15T04:20:22.078Z,1022.62
2019-05-15T04:21:22.050Z,1022.58
2019-05-15T04:22:22.034Z,1022.63
2019-05-15T04:23:22.117Z,1022.59
2019-05-15T04:24:22.006Z,1022.59
2019-05-15T04:25:21.993Z,1022.60
2019-05-15T04:26:21.998Z,1022.60
2019-05-15T04:27:21.992Z,1022.60
2019-05-15T04:28:22.014Z,1022.58
2019-05-15T04:29:21.960Z,1022.57
2019-05-15T04:30:21.935Z,1022.54
2019-05-15T04:31:21.990Z,1022.60
2019-05-15T04:32:21.920Z,1022.59
2019-05-15T04:33:21.906Z,1022.58
2019-05-15T04:34:21.908Z,1022.59
2019-05-15T04:35:22.021Z,1022.53
2019-05-15T04:36:21.870Z,1022.52
2019-05-15T04:37:21.885Z,1022.55
2019-05-15T04:38:21.876Z,1022.50
2019-05-15T04:39:21.844Z,1022.50
2019-05-15T04:40:21.837Z,1022.53
2019-05-15T04:41:21.836Z,1022.45
2019-05-15T04:42:21.802Z,1022.48
2019-05-15T04:43:21.811Z,1022.46
2019-05-15T04:44:21.788Z,1022.41
2019-05-15T04:45:21.770Z,1022.43
2019-05-15T04:46:21.884Z,1022.44
2019-05-15T04:47:21.761Z,1022.50
2019-05-15T04:48:21.771Z,1022.49
2019-05-15T04:49:21.734Z,1022.50
2019-05-15T04:50:21.771Z,1022.52
2019-05-15T04:51:21.716Z,1022.45
2019-05-15T04:52:21.753Z,1022.50
2019-05-15T04:53:21.688Z,1022.47
2019-05-15T04:54:21.683Z,1022.42
2019-05-15T04:55:21.668Z,1022.47
2019-05-15T04:56:39.670Z,1022.48
2019-05-15T04:57:21.664Z,1022.42
2019-05-15T04:58:21.660Z,1022.46
2019-05-15T04:59:21.621Z,1022.43
2019-05-15T05:00:21.602Z,1022.43
2019-05-15T05:01:21.616Z,1022.47
2019-05-15T05:02:26.519Z,1022.50
2019-05-15T05:03:22.599Z,1022.47
2019-05-15T05:04:21.567Z,1022.43
2019-05-15T05:05:21.616Z,1022.45
2019-05-15T05:06:21.540Z,1022.38
2019-05-15T05:07:21.583Z,1022.39
2019-05-15T05:08:21.627Z,1022.41
2019-05-15T05:09:22.691Z,1022.38
2019-05-15T05:10:21.503Z,1022.38
2019-05-15T05:11:23.906Z,1022.43
2019-05-15T05:12:21.470Z,1022.42
2019-05-15T05:13:21.477Z,1022.40
2019-05-15T05:14:21.468Z,1022.38
2019-05-15T05:15:21.449Z,1022.40
2019-05-15T05:16:21.433Z,1022.39
2019-05-15T05:17:21.415Z,1022.42
2019-05-15T05:18:21.422Z,1022.44
2019-05-15T05:19:21.854Z,1022.37
2019-05-15T05:20:21.414Z,1022.44
2019-05-15T05:21:21.396Z,1022.36
2019-05-15T05:22:21.380Z,1022.32
2019-05-15T05:23:21.361Z,1022.37
2019-05-15T05:24:21.341Z,1022.31
2019-05-15T05:25:21.344Z,1022.37
2019-05-15T05:26:21.341Z,1022.35
2019-05-15T05:27:21.329Z,1022.34
2019-05-15T05:28:21.293Z,1022.32
2019-05-15T05:29:21.308Z,1022.35
2019-05-15T05:30:21.299Z,1022.31
2019-05-15T05:31:21.281Z,1022.34
2019-05-15T05:32:31.242Z,1022.36
2019-05-15T05:33:22.239Z,1022.37
2019-05-15T05:34:21.237Z,1022.38
2019-05-15T05:35:21.265Z,1022.39
2019-05-15T05:36:21.217Z,1022.39
2019-05-15T05:37:21.231Z,1022.44
2019-05-15T05:38:21.190Z,1022.40
2019-05-15T05:39:21.197Z,1022.42
2019-05-15T05:40:21.173Z,1022.38
2019-05-15T05:41:21.296Z,1022.44
2019-05-15T05:42:21.164Z,1022.40
2019-05-15T05:43:21.146Z,1022.40
2019-05-15T05:44:21.120Z,1022.42
2019-05-15T05:45:21.112Z,1022.45
2019-05-15T05:46:21.103Z,1022.42
2019-05-15T05:47:21.132Z,1022.44
2019-05-15T05:48:21.074Z,1022.40
2019-05-15T05:49:21.078Z,1022.42
2019-05-15T05:50:21.058Z,1022.43
2019-05-15T05:51:21.051Z,1022.45
2019-05-15T05:52:21.029Z,1022.42
2019-05-15T05:53:21.575Z,1022.37
2019-05-15T05:54:21.019Z,1022.43
2019-05-15T05:55:21.016Z,1022.39
2019-05-15T05:56:21.000Z,1022.41
2019-05-15T05:57:20.984Z,1022.41
2019-05-15T05:58:20.989Z,1022.35
2019-05-15T05:59:20.952Z,1022.39
2019-05-15T06:00:20.956Z,1022.39
2019-05-15T06:01:20.963Z,1022.36
2019-05-15T06:02:20.927Z,1022.31
2019-05-15T06:03:20.932Z,1022.30
2019-05-15T06:04:20.928Z,1022.31
2019-05-15T06:05:20.916Z,1022.34
2019-05-15T06:06:20.889Z,1022.28
2019-05-15T06:07:20.869Z,1022.27
2019-05-15T06:08:20.870Z,1022.33
2019-05-15T06:09:20.874Z,1022.32
2019-05-15T06:10:20.856Z,1022.32
2019-05-15T06:11:20.853Z,1022.30
2019-05-15T06:12:20.826Z,1022.31
2019-05-15T06:13:20.798Z,1022.24
2019-05-15T06:14:20.804Z,1022.25
2019-05-15T06:15:20.806Z,1022.28
2019-05-15T06:16:20.776Z,1022.28
2019-05-15T06:17:20.793Z,1022.27
2019-05-15T06:18:20.780Z,1022.25
2019-05-15T06:19:20.792Z,1022.22
2019-05-15T06:20:20.737Z,1022.21
2019-05-15T06:21:20.736Z,1022.24
2019-05-15T06:22:20.731Z,1022.23
2019-05-15T06:23:24.305Z,1022.24
2019-05-15T06:24:20.681Z,1022.23
2019-05-15T06:25:20.687Z,1022.25
2019-05-15T06:26:20.680Z,1022.25
2019-05-15T06:27:20.673Z,1022.24
2019-05-15T06:28:20.685Z,1022.23
2019-05-15T06:29:20.629Z,1022.29
2019-05-15T06:30:26.655Z,1022.23
2019-05-15T06:31:21.627Z,1022.24
2019-05-15T06:32:20.627Z,1022.18
2019-05-15T06:33:20.581Z,1022.23
2019-05-15T06:34:20.598Z,1022.22
2019-05-15T06:35:20.562Z,1022.22
2019-05-15T06:36:20.558Z,1022.18
2019-05-15T06:37:20.551Z,1022.11
2019-05-15T06:38:20.554Z,1022.10
2019-05-15T06:39:20.560Z,1022.16
2019-05-15T06:40:20.504Z,1022.11
2019-05-15T06:41:20.491Z,1022.08
2019-05-15T06:42:20.491Z,1021.97
2019-05-15T06:43:20.486Z,1022.06
2019-05-15T06:44:20.479Z,1022.11
2019-05-15T06:45:20.497Z,1022.15
2019-05-15T06:46:20.448Z,1022.20
2019-05-15T06:47:20.436Z,1021.95
2019-05-15T06:48:20.425Z,1021.99
2019-05-15T06:49:20.425Z,1022.09
2019-05-15T06:50:20.399Z,1022.20
2019-05-15T06:51:20.409Z,1022.16
2019-05-15T06:52:20.379Z,1022.10
2019-05-15T06:53:20.361Z,1022.09
2019-05-15T06:54:20.360Z,1022.07
2019-05-15T06:55:20.353Z,1022.09
2019-05-15T06:56:20.360Z,1022.08
2019-05-15T06:57:20.340Z,1022.01
2019-05-15T06:58:20.321Z,1021.90
2019-05-15T06:59:20.303Z,1022.09
2019-05-15T07:00:20.306Z,1022.14
2019-05-15T07:01:20.319Z,1022.06
2019-05-15T07:02:20.261Z,1022.16
2019-05-15T07:03:25.496Z,1022.09
2019-05-15T07:04:21.255Z,1022.11
2019-05-15T07:05:20.234Z,1022.11
2019-05-15T07:06:20.231Z,1022.08
2019-05-15T07:07:20.224Z,1022.09
2019-05-15T07:08:20.200Z,1022.05
2019-05-15T07:09:20.218Z,1022.03
2019-05-15T07:10:20.240Z,1022.10
2019-05-15T07:11:20.177Z,1022.05
2019-05-15T07:12:20.187Z,1021.92
2019-05-15T07:13:20.154Z,1021.93
2019-05-15T07:14:20.142Z,1021.96
2019-05-15T07:15:20.114Z,1021.95
2019-05-15T07:16:20.112Z,1021.96
2019-05-15T07:17:20.100Z,1021.98
2019-05-15T07:18:20.357Z,1021.92
2019-05-15T07:19:20.101Z,1021.96
2019-05-15T07:20:20.138Z,1021.97
2019-05-15T07:21:20.553Z,1022.02
2019-05-15T07:22:20.041Z,1021.97
2019-05-15T07:23:20.055Z,1021.93
2019-05-15T07:24:20.025Z,1021.90
2019-05-15T07:25:20.029Z,1021.79
2019-05-15T07:26:19.993Z,1021.91
2019-05-15T07:27:19.984Z,1022.00
2019-05-15T07:28:20.021Z,1022.22
2019-05-15T07:29:19.987Z,1022.08
2019-05-15T07:30:21.536Z,1022.01
2019-05-15T07:31:19.949Z,1021.98
2019-05-15T07:32:19.937Z,1021.81
2019-05-15T07:33:34.432Z,1022.16
2019-05-15T07:34:20.913Z,1021.96
2019-05-15T07:35:19.933Z,1022.05
2019-05-15T07:36:19.891Z,1021.85
2019-05-15T07:37:19.896Z,1021.89
2019-05-15T07:38:19.884Z,1021.81
2019-05-15T07:39:19.911Z,1021.92
2019-05-15T07:40:19.890Z,1021.96
2019-05-15T07:41:19.869Z,1021.83
2019-05-15T07:42:19.831Z,1021.88
2019-05-15T07:43:19.819Z,1021.89
2019-05-15T07:44:19.831Z,1021.88
2019-05-15T07:45:19.955Z,1021.92
2019-05-15T07:46:19.786Z,1021.91
2019-05-15T07:47:19.771Z,1021.99
2019-05-15T07:48:19.762Z,1021.95
2019-05-15T07:49:19.752Z,1022.04
2019-05-15T07:50:19.840Z,1022.03
2019-05-15T07:51:19.731Z,1021.97
2019-05-15T07:52:19.720Z,1021.89
2019-05-15T07:53:20.323Z,1021.98
2019-05-15T07:54:19.706Z,1022.04
2019-05-15T07:55:19.700Z,1022.04
2019-05-15T07:56:19.675Z,1021.90
2019-05-15T07:57:19.671Z,1021.96
2019-05-15T07:58:21.755Z,1021.95
2019-05-15T07:59:19.639Z,1021.93
2019-05-15T08:00:19.657Z,1021.90
2019-05-15T08:01:19.629Z,1021.90
2019-05-15T08:02:19.621Z,1021.88
2019-05-15T08:03:19.608Z,1021.90
2019-05-15T08:04:28.535Z,1021.89
2019-05-15T08:05:20.657Z,1021.90
2019-05-15T08:06:19.562Z,1021.89
2019-05-15T08:07:19.564Z,1021.96
2019-05-15T08:08:19.548Z,1021.97
2019-05-15T08:09:19.544Z,1021.89
2019-05-15T08:10:19.519Z,1021.96
2019-05-15T08:11:24.104Z,1021.94
2019-05-15T08:12:20.531Z,1021.93
2019-05-15T08:13:19.485Z,1021.91
2019-05-15T08:14:19.480Z,1021.93
2019-05-15T08:15:19.472Z,1021.91
2019-05-15T08:16:19.449Z,1021.91
2019-05-15T08:17:21.985Z,1021.99
2019-05-15T08:18:19.446Z,1021.89
2019-05-15T08:19:19.417Z,1021.90
2019-05-15T08:20:19.428Z,1021.87
2019-05-15T08:21:19.402Z,1021.92
2019-05-15T08:22:19.442Z,1021.92
2019-05-15T08:23:19.732Z,1021.91
2019-05-15T08:24:19.358Z,1021.84
2019-05-15T08:25:31.089Z,1021.79
2019-05-15T08:26:20.338Z,1021.82
2019-05-15T08:27:19.321Z,1021.81
2019-05-15T08:28:19.467Z,1021.84
2019-05-15T08:29:21.696Z,1021.93
2019-05-15T08:30:19.295Z,1022.00
2019-05-15T08:31:19.293Z,1022.12
2019-05-15T08:32:19.331Z,1021.96
2019-05-15T08:33:19.412Z,1021.98
2019-05-15T08:34:19.657Z,1021.88
2019-05-15T08:35:19.375Z,1021.81
2019-05-15T08:36:19.228Z,1021.78
2019-05-15T08:37:19.233Z,1021.75
2019-05-15T08:38:19.234Z,1021.72
2019-05-15T08:39:19.217Z,1021.75
2019-05-15T08:40:19.197Z,1021.79
2019-05-15T08:41:19.200Z,1021.78
2019-05-15T08:42:19.185Z,1021.93
2019-05-15T08:43:19.164Z,1022.24
2019-05-15T08:44:19.153Z,1022.10
2019-05-15T08:45:19.167Z,1022.07
2019-05-15T08:46:19.118Z,1022.25
2019-05-15T08:47:19.435Z,1021.90
2019-05-15T08:48:19.119Z,1022.00
2019-05-15T08:49:20.200Z,1021.99
2019-05-15T08:50:19.072Z,1021.96
2019-05-15T08:51:19.427Z,1022.22
2019-05-15T08:52:19.128Z,1022.20
2019-05-15T08:53:19.673Z,1021.62
2019-05-15T08:54:19.033Z,1021.86
2019-05-15T08:55:20.178Z,1021.67
2019-05-15T08:56:19.623Z,1021.75
2019-05-15T08:57:20.429Z,1021.69
2019-05-15T08:58:20.782Z,1021.70
2019-05-15T08:59:18.986Z,1022.24
2019-05-15T09:00:18.973Z,1021.63
2019-05-15T09:01:18.973Z,1021.63
2019-05-15T09:02:19.090Z,1021.63
2019-05-15T09:03:18.978Z,1021.68
2019-05-15T09:04:27.942Z,1021.72
2019-05-15T09:05:19.922Z,1021.68
2019-05-15T09:06:22.895Z,1021.66
2019-05-15T09:07:18.897Z,1021.72
2019-05-15T09:08:19.793Z,1021.78
2019-05-15T09:09:18.936Z,1021.64
2019-05-15T09:10:18.873Z,1021.72
2019-05-15T09:11:19.354Z,1021.66
2019-05-15T09:12:19.048Z,1021.59
2019-05-15T09:13:19.244Z,1021.50
2019-05-15T09:14:18.861Z,1021.57
2019-05-15T09:15:18.823Z,1021.62
2019-05-15T09:16:18.801Z,1021.60
2019-05-15T09:17:18.783Z,1021.65
2019-05-15T09:18:20.250Z,1021.77
2019-05-15T09:19:18.800Z,1021.73
2019-05-15T09:20:19.531Z,1021.74
2019-05-15T09:21:19.371Z,1021.46
2019-05-15T09:22:18.948Z,1021.34
2019-05-15T09:23:19.575Z,1021.26
2019-05-15T09:24:19.867Z,1021.40
2019-05-15T09:25:19.365Z,1021.51
2019-05-15T09:26:19.424Z,1021.62
2019-05-15T09:27:21.566Z,1021.25
2019-05-15T09:28:19.380Z,1021.27
2019-05-15T09:29:18.678Z,1021.37
2019-05-15T09:30:18.667Z,1021.46
2019-05-15T09:31:19.240Z,1021.68
2019-05-15T09:32:19.289Z,1021.68
2019-05-15T09:33:19.985Z,1021.67
2019-05-15T09:34:18.751Z,1021.54
2019-05-15T09:35:18.778Z,1021.46
2019-05-15T09:36:20.139Z,1021.26
2019-05-15T09:37:18.600Z,1021.36
2019-05-15T09:38:18.984Z,1021.30
2019-05-15T09:39:18.576Z,1021.27
2019-05-15T09:40:18.820Z,1021.29
2019-05-15T09:41:18.584Z,1021.25
2019-05-15T09:42:18.528Z,1021.22
2019-05-15T09:43:18.534Z,1021.17
2019-05-15T09:44:21.770Z,1021.12
2019-05-15T09:45:18.479Z,1021.19
2019-05-15T09:46:18.756Z,1021.12
2019-05-15T09:47:18.995Z,1021.09
2019-05-15T09:48:19.593Z,1021.11
2019-05-15T09:49:18.441Z,1021.10
2019-05-15T09:50:19.385Z,1021.05
2019-05-15T09:51:18.573Z,1021.12
2019-05-15T09:52:22.186Z,1021.12
2019-05-15T09:53:19.155Z,1021.07
2019-05-15T09:54:19.386Z,1021.09
2019-05-15T09:55:18.380Z,1021.06
2019-05-15T09:56:18.799Z,1021.14
2019-05-15T09:57:18.896Z,1021.17
2019-05-15T09:58:20.371Z,1021.09
2019-05-15T09:59:18.730Z,1021.10
2019-05-15T10:00:18.973Z,1021.04
2019-05-15T10:01:19.648Z,1020.87
2019-05-15T10:02:18.901Z,1020.91
2019-05-15T10:03:18.958Z,1020.74
2019-05-15T10:04:18.967Z,1020.98
2019-05-15T10:05:18.883Z,1021.07
2019-05-15T10:06:20.612Z,1020.99
2019-05-15T10:07:19.319Z,1021.02
2019-05-15T10:08:20.946Z,1020.95
2019-05-15T10:09:18.947Z,1020.96
2019-05-15T10:10:19.196Z,1020.93
2019-05-15T10:11:19.620Z,1020.92
2019-05-15T10:12:18.386Z,1020.94
2019-05-15T10:13:18.625Z,1020.86
2019-05-15T10:14:19.541Z,1020.93
2019-05-15T10:15:18.707Z,1020.84
2019-05-15T10:16:19.918Z,1020.88
2019-05-15T10:17:18.498Z,1020.83
2019-05-15T10:18:19.021Z,1020.84
2019-05-15T10:19:18.704Z,1020.84
2019-05-15T10:20:18.547Z,1020.74
2019-05-15T10:21:18.774Z,1020.76
2019-05-15T10:22:18.660Z,1020.76
2019-05-15T10:23:19.593Z,1020.69
2019-05-15T10:24:18.277Z,1020.74
2019-05-15T10:25:19.044Z,1020.71
2019-05-15T10:26:19.331Z,1020.64
2019-05-15T10:27:18.148Z,1020.67
2019-05-15T10:28:18.840Z,1020.71
2019-05-15T10:29:17.998Z,1020.63
2019-05-15T10:30:18.881Z,1020.61
2019-05-15T10:31:19.476Z,1020.66
2019-05-15T10:32:19.483Z,1020.63
2019-05-15T10:33:19.633Z,1020.65
2019-05-15T10:34:18.429Z,1020.59
2019-05-15T10:35:25.690Z,1020.64
2019-05-15T10:36:19.232Z,1020.59
2019-05-15T10:37:18.579Z,1020.62
2019-05-15T10:38:19.217Z,1020.62
2019-05-15T10:39:18.289Z,1020.57
2019-05-15T10:40:20.411Z,1020.62
2019-05-15T10:41:18.734Z,1020.55
2019-05-15T10:42:19.326Z,1020.53
2019-05-15T10:43:20.512Z,1020.57
2019-05-15T10:44:18.297Z,1020.53
2019-05-15T10:45:19.275Z,1020.46
2019-05-15T10:46:19.073Z,1020.50
2019-05-15T10:47:17.830Z,1020.55
2019-05-15T10:48:18.981Z,1020.51
2019-05-15T10:49:18.830Z,1020.48
2019-05-15T10:50:19.062Z,1020.51
2019-05-15T10:51:19.593Z,1020.39
2019-05-15T10:52:18.088Z,1020.47
2019-05-15T10:53:18.779Z,1020.46
2019-05-15T10:54:19.199Z,1020.43
2019-05-15T10:55:18.933Z,1020.45
2019-05-15T10:56:18.556Z,1020.41
2019-05-15T10:57:18.945Z,1020.47
2019-05-15T10:58:21.740Z,1020.37
2019-05-15T10:59:18.259Z,1020.35
2019-05-15T11:00:19.430Z,1020.38
2019-05-15T11:01:19.267Z,1020.36
2019-05-15T11:02:19.199Z,1020.32
2019-05-15T11:03:19.936Z,1020.38
2019-05-15T11:04:18.140Z,1020.38
2019-05-15T11:05:18.034Z,1020.34
2019-05-15T11:06:18.312Z,1020.30
2019-05-15T11:07:19.457Z,1020.28
2019-05-15T11:08:18.824Z,1020.21
2019-05-15T11:09:18.570Z,1020.27
2019-05-15T11:10:18.613Z,1020.26
2019-05-15T11:11:18.371Z,1020.24
2019-05-15T11:12:18.890Z,1020.20
2019-05-15T11:13:18.607Z,1020.20
2019-05-15T11:14:18.423Z,1020.18
2019-05-15T11:15:18.383Z,1020.22
2019-05-15T11:16:20.762Z,1020.18
2019-05-15T11:17:17.520Z,1020.07
2019-05-15T11:18:17.473Z,1020.12
2019-05-15T11:19:17.458Z,1020.10
2019-05-15T11:20:18.778Z,1020.16
2019-05-15T11:21:19.022Z,1020.15
2019-05-15T11:22:18.888Z,1020.18
2019-05-15T11:23:20.128Z,1020.21
2019-05-15T11:24:19.471Z,1020.13
2019-05-15T11:25:17.404Z,1020.09
2019-05-15T11:26:19.509Z,1020.08
2019-05-15T11:27:19.129Z,1020.05
2019-05-15T11:28:17.361Z,1020.03
2019-05-15T11:29:17.341Z,1020.02
2019-05-15T11:30:19.267Z,1020.09
2019-05-15T11:31:17.311Z,1020.05
2019-05-15T11:32:17.302Z,1020.01
2019-05-15T11:33:18.975Z,1019.97
2019-05-15T11:34:18.596Z,1020.04
2019-05-15T11:35:18.588Z,1019.97
2019-05-15T11:36:18.530Z,1020.05
2019-05-15T11:37:18.969Z,1020.02
2019-05-15T11:38:19.542Z,1020.00
2019-05-15T11:39:18.220Z,1020.01
2019-05-15T11:40:18.818Z,1019.93
2019-05-15T11:41:19.167Z,1019.95
2019-05-15T11:42:17.192Z,1019.95
2019-05-15T11:43:19.715Z,1019.90
2019-05-15T11:44:18.771Z,1019.94
2019-05-15T11:45:18.537Z,1019.96
2019-05-15T11:46:18.569Z,1019.90
2019-05-15T11:47:18.438Z,1019.91
2019-05-15T11:48:20.192Z,1019.93
2019-05-15T11:49:18.227Z,1019.90
2019-05-15T11:50:20.032Z,1019.94
2019-05-15T11:51:18.426Z,1019.91
2019-05-15T11:52:18.876Z,1019.86
2019-05-15T11:53:19.155Z,1019.86
2019-05-15T11:54:19.197Z,1019.81
2019-05-15T11:55:17.069Z,1019.73
2019-05-15T11:56:18.945Z,1019.78
2019-05-15T11:57:19.052Z,1019.79
2019-05-15T11:58:18.867Z,1019.78
2019-05-15T11:59:18.438Z,1019.70
2019-05-15T12:00:26.157Z,1019.76
2019-05-15T12:01:19.170Z,1019.77
2019-05-15T12:02:18.909Z,1019.76
2019-05-15T12:03:18.750Z,1019.71
2019-05-15T12:04:29.622Z,1019.78
2019-05-15T12:05:18.314Z,1019.80